createdAt,value
2022-11-16T00:02:24.091Z,99
2022-11-16T00:05:29.358Z,72
2022-11-16T00:08:35.015Z,80
2022-11-16T00:11:40.000Z,83
2022-11-16T00:15:22.371Z,88
2022-11-16T00:18:27.683Z,95
2022-11-16T00:22:04.941Z,114
2022-11-16T00:24:38.270Z,77
2022-11-16T00:28:20.626Z,100
2022-11-16T00:31:25.925Z,99
2022-11-16T00:34:31.276Z,100
2022-11-16T00:37:36.582Z,92
2022-11-16T00:40:33.724Z,114
2022-11-16T00:43:39.025Z,108
2022-11-16T00:47:21.357Z,176
2022-11-16T00:50:26.708Z,107
2022-11-16T00:53:31.960Z,136
2022-11-16T00:56:37.296Z,120
2022-11-16T01:00:19.646Z,129
2022-11-16T01:03:24.968Z,112
2022-11-16T01:06:30.280Z,126
2022-11-16T01:09:35.626Z,116
2022-11-16T01:12:40.908Z,104
2022-11-16T01:16:23.258Z,133
2022-11-16T01:19:28.588Z,138
2022-11-16T01:22:33.911Z,112
2022-11-16T01:25:39.229Z,120
2022-11-16T01:29:22.284Z,114
2022-11-16T01:32:26.893Z,109
2022-11-16T01:35:32.214Z,145
2022-11-16T01:38:37.495Z,109
2022-11-16T01:41:34.604Z,144
2022-11-16T01:44:39.968Z,111
2022-11-16T01:48:22.395Z,133
2022-11-16T01:51:27.604Z,122
2022-11-16T01:54:32.935Z,126
2022-11-16T01:57:38.246Z,112
2022-11-16T02:01:20.674Z,113
2022-11-16T02:04:25.926Z,106
2022-11-16T02:07:31.257Z,139
2022-11-16T02:10:36.530Z,135
2022-11-16T02:13:41.892Z,132
2022-11-16T02:17:24.220Z,106
2022-11-16T02:20:29.511Z,102
2022-11-16T02:23:34.836Z,97
2022-11-16T02:26:40.144Z,108
2022-11-16T02:30:22.502Z,102
2022-11-16T02:33:27.849Z,105
2022-11-16T02:36:33.141Z,100
2022-11-16T02:39:38.435Z,81
2022-11-16T02:43:12.629Z,102
2022-11-16T02:45:40.847Z,113
2022-11-16T02:49:23.273Z,80
2022-11-16T02:52:28.553Z,79
2022-11-16T02:55:33.853Z,86
2022-11-16T02:58:39.197Z,99
2022-11-16T03:02:21.506Z,92
2022-11-16T03:05:26.802Z,90
2022-11-16T03:08:32.642Z,91
2022-11-16T03:11:37.507Z,91
2022-11-16T03:15:19.860Z,86
2022-11-16T03:18:25.273Z,106
2022-11-16T03:21:30.460Z,80
2022-11-16T03:24:35.770Z,73
2022-11-16T03:27:41.084Z,71
2022-11-16T03:31:23.454Z,76
2022-11-16T03:34:28.756Z,68
2022-11-16T03:37:34.092Z,66
2022-11-16T03:42:22.349Z,56
2022-11-16T03:45:27.768Z,58
2022-11-16T03:48:33.138Z,62
2022-11-16T03:51:38.317Z,54
2022-11-16T03:55:21.454Z,46
2022-11-16T03:58:26.004Z,49
2022-11-16T04:01:31.296Z,49
2022-11-16T04:04:36.576Z,39
2022-11-16T04:07:41.938Z,47
2022-11-16T04:11:24.287Z,36
2022-11-16T04:14:29.599Z,40
2022-11-16T04:17:34.906Z,41
2022-11-16T04:20:40.208Z,52
2022-11-16T04:24:22.591Z,52
2022-11-16T04:27:27.884Z,56
2022-11-16T04:30:33.186Z,47
2022-11-16T04:33:38.501Z,48
2022-11-16T04:37:20.872Z,71
2022-11-16T04:40:26.191Z,48
2022-11-16T04:43:23.295Z,68
2022-11-16T04:46:28.614Z,34
2022-11-16T04:49:33.901Z,38
2022-11-16T04:52:39.244Z,57
2022-11-16T04:56:21.604Z,62
2022-11-16T04:59:26.950Z,46
2022-11-16T05:02:32.208Z,58
2022-11-16T05:05:38.619Z,48
2022-11-16T05:08:42.844Z,45
2022-11-16T05:12:25.200Z,63
2022-11-16T05:15:30.502Z,71
2022-11-16T05:18:36.134Z,54
2022-11-16T05:21:41.154Z,77
2022-11-16T05:25:23.530Z,64
2022-11-16T05:28:28.822Z,65
2022-11-16T05:31:37.637Z,60
2022-11-16T05:34:39.468Z,61
2022-11-16T05:38:21.811Z,59
2022-11-16T05:41:18.951Z,86
2022-11-16T05:44:24.271Z,69
2022-11-16T05:47:29.521Z,57
2022-11-16T05:50:38.601Z,58
2022-11-16T05:53:40.197Z,71
2022-11-16T05:57:22.528Z,94
2022-11-16T06:00:27.849Z,45
2022-11-16T06:03:33.289Z,53
2022-11-16T06:06:38.492Z,105
2022-11-16T06:10:20.822Z,61
2022-11-16T06:13:26.153Z,80
2022-11-16T06:16:31.482Z,61
2022-11-16T06:19:36.758Z,60
2022-11-16T06:22:42.074Z,65
2022-11-16T06:26:24.432Z,82
2022-11-16T06:29:29.763Z,77
2022-11-16T06:32:35.059Z,70
2022-11-16T06:35:40.383Z,63
2022-11-16T06:39:22.737Z,68
2022-11-16T06:43:34.006Z,56
2022-11-16T06:46:39.327Z,63
2022-11-16T06:50:21.683Z,75
2022-11-16T06:53:29.350Z,75
2022-11-16T06:56:32.285Z,46
2022-11-16T06:59:37.611Z,62
2022-11-16T07:02:42.895Z,69
2022-11-16T07:06:25.266Z,61
2022-11-16T07:09:30.570Z,108
2022-11-16T07:12:35.931Z,119
2022-11-16T07:15:41.236Z,101
2022-11-16T07:19:23.557Z,64
2022-11-16T07:22:28.940Z,77
2022-11-16T07:25:34.215Z,63
2022-11-16T07:28:43.471Z,39
2022-11-16T07:32:21.932Z,47
2022-11-16T07:35:27.161Z,55
2022-11-16T07:38:32.791Z,42
2022-11-16T07:42:35.578Z,38
2022-11-16T07:45:03.805Z,47
2022-11-16T07:47:32.059Z,54
2022-11-16T07:54:19.755Z,45
2022-11-16T07:57:25.059Z,41
2022-11-16T08:04:12.945Z,102
2022-11-16T08:07:55.115Z,87
2022-11-16T08:10:23.406Z,64
2022-11-16T08:13:28.648Z,66
2022-11-16T08:18:25.153Z,63
2022-11-16T08:22:44.556Z,60
2022-11-16T08:28:55.215Z,39
2022-11-16T08:32:00.507Z,72
2022-11-16T08:35:05.799Z,83
2022-11-16T08:38:48.240Z,59
2022-11-16T08:42:30.540Z,61
2022-11-16T08:45:35.876Z,39
2022-11-16T08:49:55.327Z,81
2022-11-16T08:52:23.559Z,39
2022-11-16T08:54:51.797Z,46
2022-11-16T08:57:20.077Z,59
2022-11-16T08:59:48.297Z,36
2022-11-16T09:03:22.478Z,56
2022-11-16T09:06:27.823Z,61
2022-11-16T09:09:33.106Z,48
2022-11-16T09:12:38.399Z,117
2022-11-16T09:15:43.681Z,51
2022-11-16T09:19:26.078Z,66
2022-11-16T09:22:31.391Z,55
2022-11-16T09:25:36.702Z,61
2022-11-16T09:28:42.019Z,76
2022-11-16T09:32:24.400Z,45
2022-11-16T09:37:57.929Z,44
2022-11-16T09:40:26.190Z,60
2022-11-16T09:42:54.427Z,58
2022-11-16T09:45:59.755Z,45
2022-11-16T09:49:10.491Z,101
2022-11-16T09:51:33.274Z,22
2022-11-16T09:54:38.604Z,68
2022-11-16T09:58:20.952Z,22
2022-11-16T10:01:26.376Z,24
2022-11-16T10:05:45.702Z,68
2022-11-16T10:08:13.975Z,30
2022-11-16T10:11:56.387Z,31
2022-11-16T10:15:30.481Z,28
2022-11-16T10:18:35.863Z,81
2022-11-16T10:21:41.134Z,60
2022-11-16T10:24:09.379Z,66
2022-11-16T10:27:51.745Z,43
2022-11-16T10:30:20.114Z,42
2022-11-16T10:32:48.243Z,101
2022-11-16T10:36:30.634Z,45
2022-11-16T10:46:23.665Z,82
2022-11-16T10:59:59.005Z,71
2022-11-16T11:03:04.304Z,25
2022-11-16T11:07:07.384Z,74
2022-11-16T11:10:49.683Z,117
2022-11-16T11:14:32.130Z,39
2022-11-16T11:17:37.373Z,52
2022-11-16T11:20:44.948Z,40
2022-11-16T11:24:43.202Z,30
2022-11-16T11:27:30.355Z,47
2022-11-16T11:30:35.681Z,41
2022-11-16T11:36:09.249Z,60
2022-11-16T11:39:51.627Z,38
2022-11-16T11:42:19.851Z,47
2022-11-16T11:44:48.104Z,55
2022-11-16T11:47:50.723Z,45
2022-11-16T11:49:44.608Z,41
2022-11-16T11:55:55.229Z,43
2022-11-16T11:59:37.554Z,53
2022-11-16T12:03:20.000Z,51
2022-11-16T12:06:17.077Z,57
2022-11-16T12:09:22.368Z,51
2022-11-16T12:14:55.966Z,73
2022-11-16T12:17:24.205Z,35
2022-11-16T12:19:52.432Z,39
2022-11-16T12:22:20.685Z,53
2022-11-16T12:25:26.000Z,24
2022-11-16T12:28:31.298Z,72
2022-11-16T12:31:36.662Z,46
2022-11-16T12:35:19.007Z,60
2022-11-16T12:37:47.312Z,60
2022-11-16T12:40:15.507Z,29
2022-11-16T12:43:20.790Z,46
2022-11-16T12:46:26.134Z,54
2022-11-16T12:49:31.408Z,26
2022-11-16T12:52:36.744Z,18
2022-11-16T12:55:42.017Z,48
2022-11-16T12:59:24.374Z,49
2022-11-16T13:04:20.877Z,35
2022-11-16T13:08:32.154Z,55
2022-11-16T13:12:55.696Z,36
2022-11-16T13:15:19.797Z,57
2022-11-16T13:17:48.083Z,49
2022-11-16T13:20:53.340Z,46
2022-11-16T13:24:35.766Z,40
2022-11-16T13:27:03.995Z,43
2022-11-16T13:30:46.348Z,62
2022-11-16T13:33:14.644Z,46
2022-11-16T13:35:42.845Z,42
2022-11-16T13:39:25.221Z,46
2022-11-16T13:42:30.529Z,115
2022-11-16T13:45:35.897Z,47
2022-11-16T13:48:41.184Z,55
2022-11-16T13:52:24.955Z,104
2022-11-16T13:55:28.837Z,51
2022-11-16T13:58:34.170Z,45
2022-11-16T14:03:30.704Z,49
2022-11-16T14:07:41.873Z,44
2022-11-16T14:12:38.400Z,23
2022-11-16T14:15:06.637Z,56
2022-11-16T14:18:49.033Z,55
2022-11-16T14:21:54.310Z,51
2022-11-16T14:24:59.606Z,39
2022-11-16T14:27:30.564Z,33
2022-11-16T14:30:33.155Z,22
2022-11-16T14:33:38.712Z,49
2022-11-16T14:37:20.853Z,22
2022-11-16T14:40:26.186Z,30
2022-11-16T14:43:31.609Z,49
2022-11-16T14:46:36.818Z,60
2022-11-16T14:49:42.114Z,73
2022-11-16T14:53:24.451Z,24
2022-11-16T14:56:29.792Z,55
2022-11-16T14:59:35.120Z,32
2022-11-16T15:02:40.463Z,28
2022-11-16T15:07:28.699Z,44
2022-11-16T15:12:25.233Z,21
2022-11-16T15:17:21.708Z,40
2022-11-16T15:20:27.020Z,41
2022-11-16T15:23:32.622Z,86
2022-11-16T15:26:37.657Z,46
2022-11-16T15:31:34.152Z,52
2022-11-16T15:34:39.444Z,57
2022-11-16T15:38:21.830Z,41
2022-11-16T15:41:27.114Z,66
2022-11-16T15:44:32.433Z,49
2022-11-16T15:47:37.757Z,28
2022-11-16T15:51:20.165Z,60
2022-11-16T15:54:25.429Z,61
2022-11-16T15:57:30.747Z,67
2022-11-16T16:00:36.121Z,74
2022-11-16T16:03:41.337Z,67
2022-11-16T16:08:29.696Z,87
2022-11-16T16:11:34.976Z,61
2022-11-16T16:14:40.257Z,55
2022-11-16T16:18:22.633Z,71
2022-11-16T16:21:27.942Z,88
2022-11-16T16:24:33.239Z,72
2022-11-16T16:27:38.539Z,84
2022-11-16T16:31:20.933Z,100
2022-11-16T16:35:40.352Z,80
2022-11-16T16:40:27.661Z,118
2022-11-16T16:42:28.071Z,79
2022-11-16T16:45:33.332Z,119
2022-11-16T16:48:43.337Z,85
2022-11-16T16:52:21.053Z,115
2022-11-16T16:55:26.355Z,91
2022-11-16T16:58:31.678Z,86
2022-11-16T17:02:51.129Z,126
2022-11-16T17:05:19.460Z,138
2022-11-16T17:08:08.247Z,202
2022-11-16T17:11:50.648Z,140
2022-11-16T17:15:33.041Z,129
2022-11-16T17:18:38.317Z,101
2022-11-16T17:22:20.692Z,104
2022-11-16T17:26:03.055Z,102
2022-11-16T17:29:45.434Z,132
2022-11-16T17:32:13.705Z,92
2022-11-16T17:35:56.079Z,96
2022-11-16T17:38:24.298Z,88
2022-11-16T17:41:29.602Z,82
2022-11-16T17:44:34.929Z,116
2022-11-16T17:47:40.200Z,111
2022-11-16T17:51:22.595Z,159
2022-11-16T17:54:27.918Z,131
2022-11-16T17:57:33.231Z,121
2022-11-16T18:00:38.614Z,118
2022-11-16T18:04:20.874Z,125
2022-11-16T18:08:36.251Z,87
2022-11-16T18:11:41.561Z,119
2022-11-16T18:15:27.782Z,116
2022-11-16T18:18:29.231Z,157
2022-11-16T18:21:34.582Z,115
2022-11-16T18:24:39.867Z,121
2022-11-16T18:28:22.223Z,115
2022-11-16T18:31:27.549Z,125
2022-11-16T18:44:05.668Z,113
2022-11-16T18:50:26.920Z,142
2022-11-16T19:16:29.548Z,126
2022-11-16T19:19:05.910Z,116
2022-11-16T19:21:25.983Z,96
2022-11-16T19:23:54.263Z,132
2022-11-16T19:26:22.509Z,122
2022-11-16T19:28:50.793Z,169
2022-11-16T19:32:33.191Z,126
2022-11-16T19:35:01.445Z,133
2022-11-16T19:37:29.738Z,101
2022-11-16T19:39:58.007Z,116
2022-11-16T19:42:26.248Z,114
2022-11-16T19:45:02.713Z,108
2022-11-16T19:47:30.979Z,161
2022-11-16T19:49:59.251Z,118
2022-11-16T19:52:27.529Z,128
2022-11-16T19:55:03.967Z,100
2022-11-16T19:57:40.403Z,141
2022-11-16T20:01:22.897Z,98
2022-11-16T20:03:51.095Z,93
2022-11-16T20:07:33.553Z,108
2022-11-16T20:10:01.789Z,108
2022-11-16T20:12:30.024Z,101
2022-11-16T20:14:58.360Z,86
2022-11-16T20:17:34.745Z,119
2022-11-16T20:22:23.086Z,111
2022-11-16T20:24:59.560Z,100
2022-11-16T20:27:27.814Z,97
2022-11-16T20:29:56.096Z,84
2022-11-16T20:32:24.354Z,113
2022-11-16T20:34:52.632Z,88
2022-11-16T20:37:20.867Z,85
2022-11-16T20:39:49.144Z,93
2022-11-16T20:43:31.601Z,57
2022-11-16T20:45:59.798Z,70
2022-11-16T20:48:28.101Z,66
2022-11-16T20:53:33.106Z,59
2022-11-16T20:56:09.278Z,38
2022-11-16T20:58:38.616Z,57
2022-11-16T21:02:28.132Z,49
2022-11-16T21:05:00.017Z,41
2022-11-16T21:07:24.713Z,56
2022-11-16T21:09:52.935Z,55
2022-11-16T21:12:21.191Z,96
2022-11-16T21:14:49.444Z,74
2022-11-16T21:18:31.848Z,68
2022-11-16T21:48:02.939Z,57
2022-11-16T21:51:53.462Z,50
2022-11-16T21:54:21.714Z,71
2022-11-16T21:56:49.975Z,66
2022-11-16T22:00:32.375Z,101
2022-11-16T22:03:00.674Z,75
2022-11-16T22:05:28.959Z,66
2022-11-16T22:07:57.161Z,64
2022-11-16T22:11:39.607Z,67
2022-11-16T22:57:30.770Z,34
2022-11-16T23:01:21.308Z,63
2022-11-16T23:03:49.619Z,56
2022-11-16T23:08:46.322Z,54
2022-11-16T23:12:28.504Z,33
2022-11-16T23:14:56.785Z,63
2022-11-16T23:17:25.055Z,61
2022-11-16T23:22:21.571Z,50
2022-11-16T23:24:49.951Z,59
2022-11-16T23:28:40.391Z,75
2022-11-16T23:32:22.945Z,78
2022-11-16T23:34:59.267Z,75
2022-11-16T23:37:27.577Z,64
2022-11-16T23:39:55.792Z,65
2022-11-16T23:42:24.092Z,53
2022-11-16T23:44:52.328Z,42
2022-11-16T23:47:20.604Z,60
2022-11-16T23:51:03.019Z,55
2022-11-16T23:53:31.280Z,38
2022-11-16T23:58:19.633Z,60
